Time,TemperatureF,DewpointF,PressureIn,WindDirection,WindDirectionDegrees,WindSpeedMPH,WindSpeedGustMPH,Humidity,HourlyPrecipIn,Conditions,Clouds,dailyrainin,SolarRadiationWatts/m^2,UVIndex,SoftwareType,DateUTC
2022-01-22 00:04:56,30.2,14.7,30.49,SE,132,1.5,3,52,0.00,,,0.00,0,0,n/a,2022-01-22T06:04:56Z
2022-01-22 00:09:57,29.9,14.4,30.49,SE,128,1.9,3.5,52,0.00,,,0.00,0,0,n/a,2022-01-22T06:09:57Z
2022-01-22 00:14:58,29.8,14.3,30.49,SE,125,2.3,4.6,52,0.00,,,0.00,0,0,n/a,2022-01-22T06:14:58Z
2022-01-22 00:19:59,29.7,14.2,30.49,SE,124,2.1,5,52,0.00,,,0.00,0,0,n/a,2022-01-22T06:19:59Z
2022-01-22 00:24:59,29.7,14.2,30.49,SE,124,1.9,3.5,52,0.00,,,0.00,0,0,n/a,2022-01-22T06:24:59Z
2022-01-22 00:29:59,29.7,14.3,30.49,ESE,121,1.9,3.5,52.3,0.00,,,0.00,0,0,n/a,2022-01-22T06:29:59Z
2022-01-22 00:34:59,29.7,14.3,30.50,ESE,115,2.5,3.5,52.2,0.00,,,0.00,0,0,n/a,2022-01-22T06:34:59Z
2022-01-22 00:39:56,29.8,14.3,30.50,ESE,108,1.9,3.5,52,0.00,,,0.00,0,0,n/a,2022-01-22T06:39:56Z
2022-01-22 00:44:56,29.9,14.4,30.50,ESE,106,2.4,5.8,52,0.00,,,0.00,0,0,n/a,2022-01-22T06:44:56Z
2022-01-22 00:49:56,29.9,14.4,30.50,ESE,104,2.5,5.8,52,0.00,,,0.00,0,0,n/a,2022-01-22T06:49:56Z
2022-01-22 00:54:56,29.9,14.7,30.50,East,94,2.8,4.6,52.9,0.00,,,0.00,0,0,n/a,2022-01-22T06:54:56Z
2022-01-22 00:59:56,29.9,14.8,30.50,East,97,2.4,5,53,0.00,,,0.00,0,0,n/a,2022-01-22T06:59:56Z
2022-01-22 01:04:57,29.9,14.8,30.50,East,98,1.1,5,53,0.00,,,0.00,0,0,n/a,2022-01-22T07:04:57Z
2022-01-22 01:09:57,29.8,14.7,30.50,East,99,1.3,2.3,53,0.00,,,0.00,0,0,n/a,2022-01-22T07:09:57Z
2022-01-22 01:14:58,29.8,15,30.50,East,97,1.8,3.5,53.6,0.00,,,0.00,0,0,n/a,2022-01-22T07:14:58Z
2022-01-22 01:19:58,29.6,15.2,30.50,East,97,2.5,5.8,54.3,0.00,,,0.00,0,0,n/a,2022-01-22T07:19:58Z
2022-01-22 01:24:59,29.6,15.4,30.50,East,95,2.7,6,55,0.00,,,0.00,0,0,n/a,2022-01-22T07:24:59Z
2022-01-22 01:29:59,29.6,15.5,30.50,East,98,2.7,5,55.2,0.00,,,0.00,0,0,n/a,2022-01-22T07:29:59Z
2022-01-22 01:34:59,29.7,15.9,30.50,ESE,108,2.8,5.8,56,0.00,,,0.00,0,0,n/a,2022-01-22T07:34:59Z
2022-01-22 01:39:56,29.7,15.9,30.50,ESE,121,3.3,6,56,0.00,,,0.00,0,0,n/a,2022-01-22T07:39:56Z
2022-01-22 01:44:57,29.8,16.2,30.50,SE,128,3.6,6,56.6,0.00,,,0.00,0,0,n/a,2022-01-22T07:44:57Z
2022-01-22 01:49:59,29.8,16.4,30.50,SE,127,2.5,6,57,0.00,,,0.00,0,0,n/a,2022-01-22T07:49:59Z
2022-01-22 01:54:56,29.8,16.2,30.50,SE,126,2.1,5,56.6,0.00,,,0.00,0,0,n/a,2022-01-22T07:54:56Z
2022-01-22 01:59:56,29.6,15.9,30.50,SE,127,2.3,5,56.2,0.00,,,0.00,0,0,n/a,2022-01-22T07:59:56Z
2022-01-22 02:04:58,29.5,16.1,30.50,SE,131,2.5,5.8,57,0.00,,,0.00,0,0,n/a,2022-01-22T08:04:58Z
2022-01-22 02:09:59,29.2,15.8,30.50,SE,126,2.3,6,57,0.00,,,0.00,0,0,n/a,2022-01-22T08:09:59Z
2022-01-22 02:14:56,29,15.9,30.50,ESE,123,2,6,57.5,0.00,,,0.00,0,0,n/a,2022-01-22T08:14:56Z
2022-01-22 02:19:56,28.8,15.9,30.51,SE,124,1.6,3.5,58,0.00,,,0.00,0,0,n/a,2022-01-22T08:19:56Z
2022-01-22 02:24:57,28.6,15.7,30.51,SE,145,2.5,4.6,58,0.00,,,0.00,0,0,n/a,2022-01-22T08:24:57Z
2022-01-22 02:29:57,28.5,15.9,30.51,SSE,150,1.8,5,58.7,0.00,,,0.00,0,0,n/a,2022-01-22T08:29:57Z
2022-01-22 02:34:58,28.5,15.8,30.51,SSE,155,1.5,3.5,58.6,0.00,,,0.00,0,0,n/a,2022-01-22T08:34:58Z
2022-01-22 02:39:58,28.4,15.5,30.52,SE,128,1.6,3.5,58,0.00,,,0.00,0,0,n/a,2022-01-22T08:39:58Z
2022-01-22 02:44:59,28.2,15.5,30.52,SE,124,1.7,3.5,58.5,0.00,,,0.00,0,0,n/a,2022-01-22T08:44:59Z